Time;durP1;ratioP1;P1;durP2;ratioP2;P2;SDS_P1;SDS_P2;PMS_P1;PMS_P2;Temp;Humidity;BMP_temperature;BMP_pressure;BME280_temperature;BME280_humidity;BME280_pressure;Samples;Min_cycle;Max_cycle;Signal;HPM_P1;HPM_P2
2023/05/08 00:02:07;;;;;;;6.00;4.40;;;;;;;16.77;65.75;95004.28;5013857;28;20433;-82
2023/05/08 00:04:33;;;;;;;8.40;4.40;;;;;;;16.77;65.20;95012.22;5013991;28;20452;-83
2023/05/08 00:07:02;;;;;;;4.50;4.07;;;;;;;16.80;65.71;95010.09;4995200;28;20510;-83
2023/05/08 00:09:28;;;;;;;10.27;4.33;;;;;;;16.83;65.32;95011.59;5014029;28;20499;-83
2023/05/08 00:11:55;;;;;;;6.30;4.53;;;;;;;16.83;65.36;95012.41;5013691;28;20457;-83
2023/05/08 00:14:22;;;;;;;5.93;5.33;;;;;;;16.77;64.88;95007.78;5013608;28;20439;-83
2023/05/08 00:16:48;;;;;;;10.50;5.03;;;;;;;16.75;65.73;95009.75;5013433;28;20990;-82
2023/05/08 00:19:15;;;;;;;4.90;4.43;;;;;;;16.74;66.75;95018.69;5013218;28;20498;-82
2023/05/08 00:21:42;;;;;;;5.20;4.73;;;;;;;16.70;66.30;95018.19;5013325;28;20455;-82
2023/05/08 00:24:10;;;;;;;9.80;5.20;;;;;;;16.67;66.41;95023.81;5013336;28;20442;-82
2023/05/08 00:26:37;;;;;;;8.20;6.00;;;;;;;16.64;67.24;95015.34;5012973;28;21007;-83
2023/05/08 00:29:03;;;;;;;6.63;5.53;;;;;;;16.56;67.87;95016.16;5016104;28;20443;-82
2023/05/08 00:31:30;;;;;;;8.50;5.33;;;;;;;16.53;67.97;95016.50;5017075;28;20444;-82
2023/05/08 00:33:57;;;;;;;5.63;5.00;;;;;;;16.48;67.58;95016.16;5016972;28;20452;-82
2023/05/08 00:36:24;;;;;;;5.00;4.60;;;;;;;16.41;68.43;95015.13;5017268;28;20449;-82
2023/05/08 00:38:51;;;;;;;7.30;4.50;;;;;;;16.39;67.48;95025.06;5016827;28;20809;-82
2023/05/08 00:41:19;;;;;;;7.17;4.67;;;;;;;16.33;67.79;95023.91;5016760;28;20936;-82
2023/05/08 00:43:46;;;;;;;5.87;4.83;;;;;;;16.25;69.01;95013.28;5017078;28;20438;-83
2023/05/08 00:46:13;;;;;;;9.83;4.77;;;;;;;16.26;68.50;95022.06;5016762;28;20482;-83
2023/05/08 00:48:40;;;;;;;5.27;4.77;;;;;;;16.18;67.48;95027.31;5016602;28;20447;-83
2023/05/08 00:51:10;;;;;;;5.87;4.87;;;;;;;16.11;68.04;95025.31;5016531;28;20975;-82
2023/05/08 00:53:41;;;;;;;6.10;5.50;;;;;;;16.02;68.22;95018.34;5016904;28;20430;-82
2023/05/08 00:56:11;;;;;;;6.00;5.47;;;;;;;15.95;68.88;95019.97;5016500;28;20453;-83
2023/05/08 00:58:40;;;;;;;12.80;5.43;;;;;;;15.93;69.62;95024.59;5016328;28;20432;-83
2023/05/08 01:01:07;;;;;;;9.97;5.70;;;;;;;15.91;69.32;95020.47;5016005;28;20443;-83
2023/05/08 01:03:36;;;;;;;4.97;4.50;;;;;;;15.84;69.32;95019.41;5016076;28;20443;-82
2023/05/08 01:06:03;;;;;;;5.20;4.33;;;;;;;15.76;69.50;95028.97;5015802;28;20458;-82
2023/05/08 01:08:31;;;;;;;6.00;4.87;;;;;;;15.78;71.39;95020.88;5016155;28;20448;-82
2023/05/08 01:11:06;;;;;;;5.70;5.20;;;;;;;15.73;70.43;95029.31;5016660;28;20432;-82
2023/05/08 01:13:49;;;;;;;4.63;4.23;;;;;;;15.71;70.29;95036.56;5016447;28;20432;-82
2023/05/08 01:16:20;;;;;;;4.47;4.03;;;;;;;15.70;70.23;95028.78;5016435;28;20446;-82
2023/05/08 01:18:53;;;;;;;6.50;5.63;;;;;;;15.73;69.80;95031.13;5016062;28;21027;-83
2023/05/08 01:21:31;;;;;;;6.30;5.70;;;;;;;15.63;70.81;95039.19;5016179;28;20446;-82
2023/05/08 01:24:31;;;;;;;4.90;4.40;;;;;;;15.57;71.18;95033.63;5016486;28;20489;-82
2023/05/08 01:27:33;;;;;;;5.00;4.53;;;;;;;15.53;71.25;95037.59;5015747;28;20513;-82
2023/05/08 01:30:34;;;;;;;8.93;5.47;;;;;;;15.50;70.94;95039.56;5016112;28;20852;-82
2023/05/08 01:33:10;;;;;;;4.90;4.40;;;;;;;15.53;71.22;95034.94;5016261;28;20437;-83
2023/05/08 01:35:47;;;;;;;5.87;4.77;;;;;;;15.54;70.55;95023.38;5016204;28;20478;-82
2023/05/08 01:38:20;;;;;;;4.70;4.10;;;;;;;15.55;70.59;95023.22;5015684;28;20914;-81
2023/05/08 01:40:53;;;;;;;5.43;5.03;;;;;;;15.42;71.10;95034.22;4981136;28;20451;-82
2023/05/08 01:43:26;;;;;;;14.83;4.93;;;;;;;15.38;71.70;95024.94;5015875;28;20522;-82
2023/05/08 01:45:55;;;;;;;6.67;5.10;;;;;;;15.31;71.29;95023.06;5015619;28;20517;-83
2023/05/08 01:48:30;;;;;;;6.17;5.10;;;;;;;15.31;71.31;95023.06;5015791;28;20569;-82
2023/05/08 01:51:03;;;;;;;6.00;4.93;;;;;;;15.32;72.20;95020.25;5015776;28;20561;-82
2023/05/08 01:53:38;;;;;;;4.90;4.43;;;;;;;15.31;72.61;95015.13;5016153;28;20432;-82
2023/05/08 01:56:10;;;;;;;6.90;5.20;;;;;;;15.28;72.47;95018.91;5015742;28;20475;-83
2023/05/08 01:58:38;;;;;;;6.63;5.23;;;;;;;15.22;72.10;95019.53;5015825;28;20844;-82
2023/05/08 02:01:06;;;;;;;8.93;5.00;;;;;;;15.21;72.00;95019.69;5015577;28;21087;-82
2023/05/08 02:03:39;;;;;;;7.10;4.50;;;;;;;15.17;72.30;95013.91;5015284;28;20446;-82
2023/05/08 02:06:09;;;;;;;4.97;4.40;;;;;;;15.19;72.04;95020.69;5015539;28;20443;-82
2023/05/08 02:08:37;;;;;;;7.37;4.87;;;;;;;15.19;72.37;95019.84;5015084;28;20897;-82
2023/05/08 02:11:05;;;;;;;9.53;4.50;;;;;;;15.21;71.70;95022.34;4996889;28;20519;-82
2023/05/08 02:13:37;;;;;;;7.20;4.50;;;;;;;15.18;71.87;95015.56;5015145;28;20801;-82
2023/05/08 02:16:08;;;;;;;5.67;4.90;;;;;;;15.17;71.43;95021.81;5015337;28;20457;-82
2023/05/08 02:18:38;;;;;;;5.37;4.87;;;;;;;15.12;72.93;95024.09;5015462;28;20451;-83
2023/05/08 02:21:08;;;;;;;5.57;4.50;;;;;;;15.07;73.46;95014.00;5015193;28;20485;-83
2023/05/08 02:23:38;;;;;;;5.77;4.43;;;;;;;15.14;72.95;95027.44;5014942;28;20450;-83
2023/05/08 02:26:05;;;;;;;4.70;4.30;;;;;;;15.10;72.70;95026.06;5014759;28;20906;-83
2023/05/08 02:28:33;;;;;;;8.77;5.60;;;;;;;15.02;72.08;95028.63;4996612;28;20493;-83
2023/05/08 02:31:01;;;;;;;6.80;5.33;;;;;;;14.94;73.36;95020.66;5015400;28;20444;-82
2023/05/08 02:33:30;;;;;;;5.67;5.17;;;;;;;14.96;73.73;95030.09;5015229;28;20525;-82
2023/05/08 02:35:59;;;;;;;6.50;5.60;;;;;;;14.95;73.71;95032.88;5015364;28;20474;-82
2023/05/08 02:38:27;;;;;;;7.60;5.60;;;;;;;14.94;73.36;95029.41;5015110;28;20896;-83
2023/05/08 02:40:57;;;;;;;13.53;6.50;;;;;;;14.95;73.90;95028.44;5014825;28;20454;-83
2023/05/08 02:43:24;;;;;;;7.13;6.07;;;;;;;14.95;74.05;95028.44;5014807;28;20445;-83
2023/05/08 02:46:03;;;;;;;7.93;6.00;;;;;;;14.95;73.51;95032.88;5014487;28;20814;-83
2023/05/08 02:48:38;;;;;;;7.83;5.80;;;;;;;14.93;73.39;95032.22;5014840;28;20475;-82
2023/05/08 02:51:18;;;;;;;6.90;5.03;;;;;;;14.95;73.09;95028.44;5014629;28;20478;-82
2023/05/08 02:53:50;;;;;;;9.93;4.80;;;;;;;14.98;72.99;95032.56;4996126;28;20453;-82
2023/05/08 02:56:24;;;;;;;5.30;4.80;;;;;;;14.97;72.73;95036.19;5014732;28;20771;-83
2023/05/08 02:58:58;;;;;;;9.43;4.83;;;;;;;14.91;73.31;95028.88;5014930;28;20478;-82
2023/05/08 03:01:29;;;;;;;6.20;5.50;;;;;;;14.91;73.27;95042.09;5014216;28;20991;-83
2023/05/08 03:04:02;;;;;;;7.87;5.33;;;;;;;14.85;73.54;95041.75;4996290;28;20530;-83
2023/05/08 03:06:36;;;;;;;8.27;5.43;;;;;;;14.79;74.31;95039.72;5014125;28;20498;-82
2023/05/08 03:09:05;;;;;;;5.97;4.60;;;;;;;14.73;74.29;95040.28;5014268;28;20443;-83
2023/05/08 03:15:16;;;;;;;7.07;4.90;;;;;;;14.70;75.22;95040.59;5014166;28;20437;-84
2023/05/08 03:17:45;;;;;;;6.17;4.20;;;;;;;14.68;75.72;95037.28;4994788;28;20500;-83
2023/05/08 03:20:14;;;;;;;5.50;4.53;;;;;;;14.72;74.62;95040.44;4994976;28;20457;-83
2023/05/08 03:22:43;;;;;;;7.43;5.50;;;;;;;14.77;74.69;95048.78;4994721;28;20895;-82
2023/05/08 03:25:12;;;;;;;5.83;5.23;;;;;;;14.82;74.25;95047.31;4994414;28;20445;-82
2023/05/08 03:27:41;;;;;;;5.77;5.20;;;;;;;14.92;74.41;95049.88;4994888;28;20480;-82
2023/05/08 03:30:10;;;;;;;5.90;4.90;;;;;;;14.98;74.11;95053.72;4994540;28;20425;-82
2023/05/08 03:32:39;;;;;;;6.50;5.43;;;;;;;15.02;73.87;95050.59;4994215;28;20448;-82
2023/05/08 03:35:07;;;;;;;8.00;5.70;;;;;;;15.05;73.71;95046.84;4994063;28;20517;-83
2023/05/08 03:37:33;;;;;;;9.47;5.10;;;;;;;15.06;73.42;95048.53;4994405;28;20437;-83
2023/05/08 03:40:02;;;;;;;8.87;6.10;;;;;;;15.05;73.39;95044.22;4994029;28;20939;-83
2023/05/08 03:42:31;;;;;;;6.67;5.97;;;;;;;15.08;72.91;95051.84;4994364;28;20511;-83
2023/05/08 03:44:59;;;;;;;6.50;5.47;;;;;;;15.19;73.61;95051.56;4994356;28;20444;-83
2023/05/08 03:47:27;;;;;;;6.90;6.10;;;;;;;15.45;73.24;95051.59;4994063;28;20500;-84
2023/05/08 03:49:54;;;;;;;6.30;4.63;;;;;;;15.84;72.63;95054.63;4974900;28;20461;-84
2023/05/08 03:52:21;;;;;;;9.00;5.53;;;;;;;16.16;70.54;95048.66;4993556;28;20453;-83
2023/05/08 03:54:47;;;;;;;9.17;5.60;;;;;;;16.32;69.64;95048.72;4993543;28;20454;-84
2023/05/08 03:57:16;;;;;;;10.03;5.57;;;;;;;16.46;68.61;95052.56;4993617;28;20498;-83
2023/05/08 03:59:51;;;;;;;6.13;5.53;;;;;;;16.61;68.11;95050.94;4999358;28;20441;-83
2023/05/08 04:02:25;;;;;;;6.80;5.40;;;;;;;16.78;67.89;95051.84;5013285;28;20495;-83
2023/05/08 04:05:01;;;;;;;6.50;5.87;;;;;;;17.08;67.08;95057.50;5013668;28;20429;-84
2023/05/08 04:07:35;;;;;;;6.23;5.63;;;;;;;17.45;65.99;95055.13;5014700;28;21046;-86
2023/05/08 04:10:08;;;;;;;5.33;4.83;;;;;;;17.76;64.90;95060.59;5014484;28;20492;-85
2023/05/08 04:12:43;;;;;;;5.77;5.23;;;;;;;18.04;64.36;95065.47;5014102;28;20434;-88
2023/05/08 04:15:17;;;;;;;9.83;6.00;;;;;;;18.26;62.83;95067.41;5013779;28;20510;-84
2023/05/08 04:17:49;;;;;;;9.43;6.67;;;;;;;18.40;61.77;95074.63;5013363;28;20462;-84
2023/05/08 04:20:20;;;;;;;8.50;5.47;;;;;;;18.43;61.48;95079.59;5013439;28;20539;-86
2023/05/08 04:22:51;;;;;;;6.50;4.90;;;;;;;18.58;64.76;95075.19;5013538;28;20522;-80
2023/05/08 04:25:19;;;;;;;9.20;5.67;;;;;;;19.34;61.97;95080.69;5012961;28;20476;-80
2023/05/08 04:27:49;;;;;;;9.07;4.27;;;;;;;19.92;60.63;95074.69;5012773;28;20577;-80
2023/05/08 04:30:17;;;;;;;6.03;5.40;;;;;;;20.34;55.74;95078.53;5013064;28;21000;-84
2023/05/08 04:32:45;;;;;;;6.63;5.47;;;;;;;20.35;54.71;95078.34;4995212;28;20445;-85
2023/05/08 04:35:12;;;;;;;9.50;5.43;;;;;;;20.10;53.84;95080.47;5013392;28;20429;-85
2023/05/08 04:37:39;;;;;;;7.10;5.30;;;;;;;19.90;55.53;95079.34;5013238;28;20484;-84
2023/05/08 04:40:07;;;;;;;6.43;5.83;;;;;;;19.25;56.04;95081.78;5013067;28;20443;-84
2023/05/08 04:42:35;;;;;;;6.30;5.67;;;;;;;19.01;57.16;95066.81;5013063;28;20457;-84
2023/05/08 04:45:04;;;;;;;8.97;5.50;;;;;;;18.84;57.58;95074.09;5013473;28;20499;-85
2023/05/08 04:47:31;;;;;;;10.13;6.00;;;;;;;18.70;58.93;95066.84;4994300;28;20492;-85
2023/05/08 04:49:58;;;;;;;8.57;4.60;;;;;;;18.68;59.88;95055.56;5013058;28;20453;-85
2023/05/08 04:52:24;;;;;;;7.47;5.90;;;;;;;18.75;59.57;95060.00;5013473;28;20441;-85
2023/05/08 04:54:51;;;;;;;6.67;6.07;;;;;;;18.97;59.66;95058.38;5013419;28;20515;-85
2023/05/08 04:57:18;;;;;;;7.00;6.03;;;;;;;19.07;58.73;95068.75;5013312;28;20468;-85
2023/05/08 04:59:45;;;;;;;6.40;5.80;;;;;;;19.08;59.40;95062.44;5012910;28;20450;-85
2023/05/08 05:02:16;;;;;;;7.67;6.97;;;;;;;19.21;58.20;95060.00;5012786;28;20448;-84
2023/05/08 05:04:42;;;;;;;8.33;7.10;;;;;;;19.36;58.74;95047.56;5012537;28;20957;-84
2023/05/08 05:07:09;;;;;;;9.37;6.90;;;;;;;19.62;57.89;95052.50;5012534;28;20460;-85
2023/05/08 05:09:37;;;;;;;7.60;6.90;;;;;;;19.98;57.25;95054.50;5012478;28;20439;-82
2023/05/08 05:12:05;;;;;;;9.23;5.97;;;;;;;20.24;55.82;95046.84;5012615;28;20494;-84
2023/05/08 05:14:32;;;;;;;7.70;6.30;;;;;;;20.48;54.49;95052.91;5013076;28;20454;-83
2023/05/08 05:16:59;;;;;;;6.70;6.10;;;;;;;20.30;54.70;95046.13;4981590;28;20443;-84
2023/05/08 05:19:27;;;;;;;12.20;6.10;;;;;;;20.27;55.21;95051.00;5016298;28;20436;-83
2023/05/08 05:21:54;;;;;;;13.10;6.40;;;;;;;20.21;55.61;95043.72;5016068;28;20457;-84
2023/05/08 05:24:20;;;;;;;8.17;5.90;;;;;;;19.63;56.15;95040.84;5016420;28;20812;-84
2023/05/08 05:26:47;;;;;;;8.20;6.20;;;;;;;19.50;57.31;95046.78;5013918;28;20500;-83
2023/05/08 05:29:14;;;;;;;5.80;4.90;;;;;;;19.64;57.17;95045.16;5015953;28;20499;-84
2023/05/08 05:31:41;;;;;;;6.40;5.80;;;;;;;19.69;57.09;95047.31;5015831;28;20498;-83
2023/05/08 05:34:08;;;;;;;6.23;5.37;;;;;;;19.99;56.06;95046.31;5015846;28;20487;-83
2023/05/08 05:36:36;;;;;;;6.17;5.57;;;;;;;20.03;55.88;95049.44;5015844;28;20789;-83
2023/05/08 05:39:03;;;;;;;5.87;5.03;;;;;;;20.01;55.09;95051.47;4997586;28;20458;-83
2023/05/08 05:41:30;;;;;;;6.07;5.00;;;;;;;19.92;55.95;95041.88;4997639;28;20520;-83
2023/05/08 05:43:56;;;;;;;6.30;4.93;;;;;;;20.15;54.89;95041.78;5015615;28;20992;-83
2023/05/08 05:46:26;;;;;;;7.27;4.90;;;;;;;20.36;54.65;95047.19;5015582;28;20432;-83
2023/05/08 05:48:53;;;;;;;6.97;5.47;;;;;;;20.64;53.72;95045.53;5015443;28;20471;-84
2023/05/08 05:51:20;;;;;;;6.17;5.13;;;;;;;20.62;52.69;95049.38;5015785;28;20488;-84
2023/05/08 05:53:48;;;;;;;8.23;5.37;;;;;;;20.85;53.04;95055.41;4997320;28;20442;-84
2023/05/08 05:56:15;;;;;;;7.60;5.67;;;;;;;20.84;53.01;95045.75;5015405;28;20506;-84
2023/05/08 05:58:44;;;;;;;5.97;5.47;;;;;;;20.93;52.79;95047.28;5015638;28;20432;-83
2023/05/08 06:01:10;;;;;;;6.80;6.10;;;;;;;20.89;53.39;95040.66;5015275;28;20435;-83
2023/05/08 06:03:37;;;;;;;7.00;4.70;;;;;;;21.08;54.44;95043.69;5015510;28;20457;-83
2023/05/08 06:06:04;;;;;;;5.97;5.40;;;;;;;21.51;52.66;95040.03;5015520;28;20495;-83
2023/05/08 06:08:31;;;;;;;6.73;5.43;;;;;;;21.98;51.11;95035.84;5014941;28;21067;-83
2023/05/08 06:10:59;;;;;;;11.80;5.80;;;;;;;21.91;50.60;95029.59;5014970;28;20852;-84
2023/05/08 06:13:26;;;;;;;9.00;5.80;;;;;;;21.93;49.58;95027.56;5015310;28;20948;-85
2023/05/08 06:15:55;;;;;;;7.10;5.30;;;;;;;22.09;49.19;95023.78;5015687;28;20463;-84
2023/05/08 06:18:22;;;;;;;9.80;5.23;;;;;;;22.35;49.95;95029.25;5015627;28;20436;-84
2023/05/08 06:20:48;;;;;;;8.83;5.50;;;;;;;22.38;48.55;95030.72;5015462;28;20519;-84
2023/05/08 06:23:15;;;;;;;9.40;5.43;;;;;;;22.47;49.05;95029.50;5014469;28;20517;-87
2023/05/08 06:25:42;;;;;;;6.40;4.80;;;;;;;22.02;48.19;95025.56;5014554;28;20940;-85
2023/05/08 06:28:10;;;;;;;5.50;5.00;;;;;;;21.47;49.58;95029.94;5014585;28;21019;-87
2023/05/08 06:30:37;;;;;;;5.40;4.87;;;;;;;21.24;50.38;95022.97;5015299;28;20429;-86
2023/05/08 06:33:04;;;;;;;5.30;4.80;;;;;;;21.32;50.70;95024.66;5014845;28;20808;-84
2023/05/08 06:35:30;;;;;;;8.17;5.20;;;;;;;21.55;49.55;95021.75;5014891;28;20450;-86
2023/05/08 06:37:57;;;;;;;6.10;5.50;;;;;;;21.61;49.52;95029.81;5014440;28;20465;-84
2023/05/08 06:40:25;;;;;;;10.43;5.60;;;;;;;21.68;50.29;95023.69;5014728;28;20461;-85
2023/05/08 06:42:51;;;;;;;14.50;9.85;;;;;;;22.17;49.75;95021.75;5013669;28;20443;-86
2023/05/08 06:45:20;;;;;;;5.47;4.97;;;;;;;22.64;48.81;95025.47;4990084;28;20260;-86
2023/05/08 06:47:46;;;;;;;5.97;5.10;;;;;;;22.36;45.71;95022.06;5014468;28;20467;-86
2023/05/08 06:50:13;;;;;;;5.07;4.57;;;;;;;22.19;46.53;95026.91;5014402;28;20486;-86
2023/05/08 06:52:41;;;;;;;5.10;4.70;;;;;;;21.51;48.57;95023.19;5014590;28;20454;-85
2023/05/08 06:55:08;;;;;;;5.10;4.30;;;;;;;21.00;50.55;95031.31;5014582;28;20452;-85
2023/05/08 06:57:35;;;;;;;6.10;5.50;;;;;;;21.13;51.25;95030.63;5014389;28;20498;-85
2023/05/08 07:00:03;;;;;;;7.63;5.83;;;;;;;21.18;50.96;95020.19;5014565;28;20455;-85
2023/05/08 07:02:31;;;;;;;9.53;4.97;;;;;;;21.47;51.04;95024.59;5014560;28;20431;-85
2023/05/08 07:04:57;;;;;;;6.13;4.87;;;;;;;21.22;51.98;95024.13;5014516;28;20448;-85
2023/05/08 07:07:24;;;;;;;14.50;7.97;;;;;;;21.37;52.10;95027.56;5014456;28;20468;-85
2023/05/08 07:09:51;;;;;;;20.77;11.20;;;;;;;21.50;52.42;95027.69;5013947;28;20487;-85
2023/05/08 07:12:18;;;;;;;15.90;6.63;;;;;;;21.60;51.92;95022.81;5013930;28;20444;-85
2023/05/08 07:14:44;;;;;;;5.93;5.37;;;;;;;21.59;50.85;95021.19;5014284;28;20443;-85
2023/05/08 07:17:11;;;;;;;8.80;5.87;;;;;;;21.47;51.53;95028.06;5013646;28;20502;-85
2023/05/08 07:19:40;;;;;;;6.47;5.87;;;;;;;21.20;50.89;95021.66;5013783;28;20497;-84
2023/05/08 07:22:07;;;;;;;6.43;5.33;;;;;;;21.30;52.70;95029.38;5012597;28;21042;-85
2023/05/08 07:24:33;;;;;;;7.57;5.80;;;;;;;20.94;52.31;95021.41;5013603;28;20445;-85
2023/05/08 07:27:01;;;;;;;9.13;5.97;;;;;;;21.13;54.32;95035.97;5013856;28;20766;-85
2023/05/08 07:29:27;;;;;;;13.20;6.37;;;;;;;21.59;52.92;95029.19;5013673;28;20477;-85
2023/05/08 07:31:54;;;;;;;7.03;6.00;;;;;;;22.05;51.75;95028.69;5013943;28;20519;-81
2023/05/08 07:34:21;;;;;;;6.00;5.40;;;;;;;22.49;53.56;95024.78;5013983;28;20506;-80
2023/05/08 07:36:49;;;;;;;6.13;5.57;;;;;;;22.94;50.65;95022.47;4995345;28;20437;-81
2023/05/08 07:39:16;;;;;;;9.63;6.00;;;;;;;23.30;50.00;95024.78;5013635;28;20455;-85
2023/05/08 07:41:44;;;;;;;10.63;7.23;;;;;;;23.32;47.86;95028.09;5013988;28;20451;-84
2023/05/08 07:44:11;;;;;;;11.37;7.33;;;;;;;23.48;47.76;95028.50;4979094;28;20451;-86
2023/05/08 07:46:38;;;;;;;9.70;7.70;;;;;;;23.42;48.03;95029.34;5014040;28;20478;-85
2023/05/08 07:49:05;;;;;;;10.07;6.80;;;;;;;23.55;46.96;95027.69;5013742;28;20552;-84
2023/05/08 07:51:32;;;;;;;11.40;7.87;;;;;;;23.54;46.00;95031.41;5013850;28;20609;-86
2023/05/08 07:54:00;;;;;;;12.37;7.60;;;;;;;23.34;48.51;95034.06;5013535;28;20436;-84
2023/05/08 07:56:27;;;;;;;10.73;7.40;;;;;;;23.56;47.15;95032.03;5013579;28;20944;-86
2023/05/08 07:58:54;;;;;;;13.20;7.97;;;;;;;23.40;46.57;95034.06;5011794;28;20454;-86
2023/05/08 08:01:20;;;;;;;11.03;7.40;;;;;;;23.26;47.32;95024.38;5013574;28;20449;-85
2023/05/08 08:03:47;;;;;;;9.23;8.30;;;;;;;23.17;48.54;95036.31;5013438;28;20461;-85
2023/05/08 08:06:14;;;;;;;12.90;9.03;;;;;;;22.88;47.79;95032.16;5013199;28;20522;-85
2023/05/08 08:08:41;;;;;;;9.13;8.23;;;;;;;22.61;48.77;95035.75;5013613;28;20474;-85
2023/05/08 08:11:09;;;;;;;10.90;8.90;;;;;;;22.27;49.61;95034.78;5013270;28;20454;-86
2023/05/08 08:13:35;;;;;;;10.03;8.77;;;;;;;21.98;49.73;95035.84;5013587;28;20449;-85
2023/05/08 08:16:03;;;;;;;11.80;8.00;;;;;;;21.97;50.10;95034.16;5013405;28;20513;-85
2023/05/08 08:18:30;;;;;;;9.10;8.00;;;;;;;22.11;51.14;95027.91;5013765;28;20523;-85
2023/05/08 08:20:57;;;;;;;14.17;8.97;;;;;;;22.19;50.57;95030.41;5013536;28;20545;-85
2023/05/08 08:23:24;;;;;;;14.93;8.53;;;;;;;22.41;51.10;95031.13;5013276;28;20943;-84
2023/05/08 08:25:52;;;;;;;10.40;8.00;;;;;;;22.68;49.89;95037.41;5013584;28;20523;-85
2023/05/08 08:28:21;;;;;;;15.63;8.50;;;;;;;22.69;48.77;95033.72;5013573;28;20455;-84
2023/05/08 08:30:48;;;;;;;22.30;12.00;;;;;;;22.82;49.92;95041.78;5013103;28;20481;-83
2023/05/08 08:33:14;;;;;;;9.07;8.27;;;;;;;23.04;48.98;95026.41;5013369;28;20481;-85
2023/05/08 08:35:41;;;;;;;11.90;7.93;;;;;;;23.23;48.34;95030.16;5013413;28;20940;-85
2023/05/08 08:38:08;;;;;;;10.27;9.27;;;;;;;23.39;49.29;95020.88;4994703;28;20449;-85
2023/05/08 08:40:39;;;;;;;12.33;8.43;;;;;;;23.46;46.66;95019.88;5013034;28;20976;-85
2023/05/08 08:43:06;;;;;;;11.93;8.07;;;;;;;23.53;46.88;95024.38;5012866;28;20511;-85
2023/05/08 08:45:34;;;;;;;9.07;8.27;;;;;;;23.26;46.71;95012.84;5012956;28;20838;-85
2023/05/08 08:48:02;;;;;;;12.30;8.93;;;;;;;23.29;48.06;95012.44;5013575;28;20445;-85
2023/05/08 08:50:32;;;;;;;10.07;7.70;;;;;;;23.37;47.58;95010.38;5016238;28;20501;-84
2023/05/08 08:53:07;;;;;;;10.10;7.73;;;;;;;23.31;47.02;95015.72;5017214;28;20436;-84
2023/05/08 08:55:39;;;;;;;11.20;9.87;;;;;;;23.25;48.47;95006.66;5017004;28;20854;-84
2023/05/08 08:58:15;;;;;;;11.63;7.10;;;;;;;23.28;49.27;95006.25;4998585;28;20442;-84
2023/05/08 09:00:43;;;;;;;11.37;7.10;;;;;;;23.23;48.67;95014.09;5016992;28;20534;-83
2023/05/08 09:03:10;;;;;;;9.70;8.17;;;;;;;23.04;47.55;95004.16;5017142;28;20830;-85
2023/05/08 09:05:37;;;;;;;10.00;7.77;;;;;;;23.01;48.12;95000.06;5016343;28;20928;-85
2023/05/08 09:08:05;;;;;;;10.13;7.23;;;;;;;22.75;49.16;95002.63;4998092;28;20529;-86
2023/05/08 09:10:32;;;;;;;15.37;8.73;;;;;;;22.65;49.72;94994.19;5016506;28;20470;-85
2023/05/08 09:12:59;;;;;;;13.60;7.33;;;;;;;22.66;50.44;94991.31;5016577;28;20450;-84
2023/05/08 09:15:26;;;;;;;9.93;8.37;;;;;;;22.61;49.84;94991.09;4998259;28;20443;-84
2023/05/08 09:17:54;;;;;;;8.40;6.37;;;;;;;22.19;51.17;94987.63;5016156;28;20541;-85
2023/05/08 09:20:21;;;;;;;32.60;9.90;;;;;;;22.14;51.77;94974.06;5016589;28;20448;-84
2023/05/08 09:22:49;;;;;;;10.43;8.00;;;;;;;22.08;52.02;94974.84;4998121;28;20508;-85
2023/05/08 09:25:17;;;;;;;12.80;8.37;;;;;;;22.09;53.08;94968.47;5016425;28;20540;-84
2023/05/08 09:27:44;;;;;;;10.43;7.50;;;;;;;22.07;54.08;94970.53;5016222;28;20462;-85
2023/05/08 09:30:13;;;;;;;10.00;6.60;;;;;;;22.09;53.11;94973.00;4981352;28;20489;-84
2023/05/08 09:32:42;;;;;;;11.73;8.40;;;;;;;21.97;53.04;94970.03;5014180;28;21015;-84
2023/05/08 09:35:11;;;;;;;10.30;7.13;;;;;;;21.84;53.54;94961.94;5016236;28;20449;-85
2023/05/08 09:37:39;;;;;;;12.93;8.03;;;;;;;21.60;54.08;94958.72;5016090;28;20569;-85
2023/05/08 09:40:14;;;;;;;15.60;7.60;;;;;;;20.84;56.47;94949.72;5015566;28;20939;-84
2023/05/08 09:42:41;;;;;;;14.97;7.43;;;;;;;20.68;57.01;94948.13;5016128;28;20453;-84
2023/05/08 09:45:09;;;;;;;8.60;7.53;;;;;;;20.58;57.35;94946.78;5014616;28;20495;-85
2023/05/08 09:47:38;;;;;;;10.27;7.40;;;;;;;20.60;58.42;94950.09;5015456;28;20454;-84
2023/05/08 09:50:07;;;;;;;21.13;7.87;;;;;;;20.75;57.99;94950.84;5015835;28;20505;-85
2023/05/08 09:52:36;;;;;;;16.37;9.07;;;;;;;20.91;57.31;94955.94;5015370;28;20873;-85
2023/05/08 09:55:05;;;;;;;9.33;8.13;;;;;;;21.07;57.17;94965.50;5015824;28;20454;-85
2023/05/08 09:57:35;;;;;;;10.47;7.23;;;;;;;21.16;57.08;94969.69;5015625;28;20796;-85
2023/05/08 10:00:04;;;;;;;8.90;7.60;;;;;;;21.24;59.94;94971.41;5014863;28;20453;-85
2023/05/08 10:02:31;;;;;;;19.23;7.80;;;;;;;21.32;56.96;94971.25;5014673;28;20935;-85
2023/05/08 10:04:59;;;;;;;13.80;7.47;;;;;;;21.31;56.74;94974.97;4997091;28;20461;-86
2023/05/08 10:07:36;;;;;;;16.37;7.70;;;;;;;21.34;57.27;94978.06;5015221;28;20461;-85
2023/05/08 10:10:05;;;;;;;14.50;7.00;;;;;;;21.39;56.22;94974.81;5014913;28;20552;-84
2023/05/08 10:12:33;;;;;;;9.10;6.30;;;;;;;21.56;57.49;94965.47;5015291;28;20451;-85
2023/05/08 10:15:00;;;;;;;7.20;6.60;;;;;;;21.68;56.62;94971.09;5014937;28;20447;-84
2023/05/08 10:17:30;;;;;;;7.47;6.77;;;;;;;21.69;55.74;94955.91;5015070;28;20508;-84
2023/05/08 10:20:00;;;;;;;8.40;7.60;;;;;;;21.78;55.54;94965.41;5014930;28;20457;-85
2023/05/08 10:22:28;;;;;;;11.80;7.43;;;;;;;21.81;55.41;94960.50;5015138;28;20549;-85
2023/05/08 10:24:57;;;;;;;9.30;7.67;;;;;;;21.93;55.43;94947.41;5014897;28;21260;-84
2023/05/08 10:27:34;;;;;;;7.63;6.93;;;;;;;22.10;54.92;94950.59;5015139;28;20513;-85
2023/05/08 10:30:03;;;;;;;11.00;7.90;;;;;;;22.19;55.31;94942.19;5014771;28;20471;-85
2023/05/08 10:32:39;;;;;;;8.13;7.40;;;;;;;22.28;55.01;94942.03;5014597;28;20538;-84
2023/05/08 10:35:09;;;;;;;10.00;8.33;;;;;;;22.29;55.07;94938.34;5015099;28;20457;-85
2023/05/08 10:37:36;;;;;;;11.23;7.43;;;;;;;;;;4980130;28;20445;-85
2023/05/08 10:40:05;;;;;;;12.23;8.37;;;;;;;22.41;54.15;94940.22;4996603;28;20445;-84
2023/05/08 10:42:34;;;;;;;10.30;7.80;;;;;;;22.52;55.26;94938.78;5014446;28;20452;-85
2023/05/08 10:45:01;;;;;;;16.30;7.70;;;;;;;22.58;54.12;94942.53;5014546;28;20496;-85
2023/05/08 10:47:33;;;;;;;14.57;8.40;;;;;;;22.66;54.20;94937.81;5014675;28;20451;-85
2023/05/08 10:50:06;;;;;;;18.00;8.23;;;;;;;22.73;54.44;94933.28;5014395;28;20599;-84
2023/05/08 10:52:39;;;;;;;10.80;7.90;;;;;;;22.77;53.67;94931.84;5014381;28;20839;-84
2023/05/08 10:55:22;;;;;;;12.83;8.13;;;;;;;22.86;54.16;94928.00;5014327;28;20457;-84
2023/05/08 10:58:05;;;;;;;9.30;8.10;;;;;;;23.09;53.96;94924.06;5013211;28;20513;-84
2023/05/08 11:00:33;;;;;;;10.57;7.10;;;;;;;23.30;53.31;94921.19;5013073;28;20603;-84
2023/05/08 11:03:08;;;;;;;11.07;8.50;;;;;;;23.49;53.38;94917.66;5012891;28;20533;-84
2023/05/08 11:05:46;;;;;;;10.23;7.97;;;;;;;23.50;52.41;94918.47;5012570;28;21122;-84
2023/05/08 11:08:15;;;;;;;7.90;7.10;;;;;;;23.37;54.13;94913.13;5014877;28;20537;-86
2023/05/08 11:10:43;;;;;;;7.53;6.83;;;;;;;23.35;52.85;94910.66;5013877;28;20560;-85
2023/05/08 11:13:15;;;;;;;9.13;7.60;;;;;;;23.42;53.40;94908.81;5014012;28;20457;-85
2023/05/08 11:15:50;;;;;;;12.37;7.40;;;;;;;23.55;52.73;94904.47;5014329;28;20443;-85
2023/05/08 11:18:17;;;;;;;8.10;6.80;;;;;;;23.68;51.63;94899.09;5013826;28;20844;-85
2023/05/08 11:20:56;;;;;;;9.77;7.03;;;;;;;23.77;51.88;94893.31;5014209;28;20512;-84
2023/05/08 11:23:24;;;;;;;10.60;7.57;;;;;;;23.82;52.21;94892.66;5014280;28;20509;-85
2023/05/08 11:26:01;;;;;;;10.73;7.50;;;;;;;23.79;51.10;94887.72;5013857;28;20444;-85
2023/05/08 11:28:31;;;;;;;8.10;6.87;;;;;;;23.63;51.07;94878.28;5013973;28;20448;-85
2023/05/08 11:31:03;;;;;;;9.73;7.73;;;;;;;23.72;51.30;94876.22;5013818;28;20564;-85
2023/05/08 11:33:30;;;;;;;12.00;8.20;;;;;;;23.82;51.78;94873.91;5013782;28;20815;-85
2023/05/08 11:35:58;;;;;;;69.53;12.33;;;;;;;23.92;50.97;94868.91;5013445;28;20888;-85
2023/05/08 11:38:28;;;;;;;10.17;7.10;;;;;;;23.93;50.30;94865.19;5014033;28;20453;-85
2023/05/08 11:40:57;;;;;;;16.10;7.07;;;;;;;23.95;50.63;94870.34;5013576;28;20532;-83
2023/05/08 11:43:55;;;;;;;8.97;8.17;;;;;;;23.84;51.08;94861.13;4995508;28;20541;-82
2023/05/08 11:46:22;;;;;;;8.33;7.13;;;;;;;23.58;51.70;94858.53;5013466;28;20964;-82